sensor_id;sensor_type;location;lat;lon;timestamp;pressure;altitude;pressure_sealevel;temperature;humidity
4836;BME280;66719;51.226;6.902;2023-04-26T00:00:28;101093.16;;;3.62;100.00
4836;BME280;66719;51.226;6.902;2023-04-26T00:02:55;101095.88;;;3.68;100.00
4836;BME280;66719;51.226;6.902;2023-04-26T00:05:25;101089.69;;;3.60;100.00
4836;BME280;66719;51.226;6.902;2023-04-26T00:07:52;101106.78;;;3.49;100.00
4836;BME280;66719;51.226;6.902;2023-04-26T00:10:19;101105.81;;;3.44;100.00
4836;BME280;66719;51.226;6.902;2023-04-26T00:12:46;101100.47;;;3.33;100.00
4836;BME280;66719;51.226;6.902;2023-04-26T00:15:12;101097.16;;;3.42;100.00
4836;BME280;66719;51.226;6.902;2023-04-26T00:17:39;101102.31;;;3.40;100.00
4836;BME280;66719;51.226;6.902;2023-04-26T00:20:06;101097.22;;;3.47;100.00
4836;BME280;66719;51.226;6.902;2023-04-26T00:22:35;101098.09;;;3.47;100.00
4836;BME280;66719;51.226;6.902;2023-04-26T00:25:02;101091.09;;;3.40;100.00
4836;BME280;66719;51.226;6.902;2023-04-26T00:27:28;101091.03;;;3.37;100.00
4836;BME280;66719;51.226;6.902;2023-04-26T00:29:55;101092.69;;;3.32;100.00
4836;BME280;66719;51.226;6.902;2023-04-26T00:32:21;101085.69;;;3.26;100.00
4836;BME280;66719;51.226;6.902;2023-04-26T00:34:48;101088.22;;;3.22;100.00
4836;BME280;66719;51.226;6.902;2023-04-26T00:37:14;101093.31;;;3.19;100.00
4836;BME280;66719;51.226;6.902;2023-04-26T00:39:41;101084.50;;;3.07;100.00
4836;BME280;66719;51.226;6.902;2023-04-26T00:42:08;101086.84;;;2.95;100.00
4836;BME280;66719;51.226;6.902;2023-04-26T00:44:34;101083.53;;;3.02;100.00
4836;BME280;66719;51.226;6.902;2023-04-26T00:47:01;101085.94;;;2.93;100.00
4836;BME280;66719;51.226;6.902;2023-04-26T00:49:28;101085.88;;;2.89;100.00
4836;BME280;66719;51.226;6.902;2023-04-26T00:51:55;101083.38;;;2.93;100.00
4836;BME280;66719;51.226;6.902;2023-04-26T00:54:22;101074.72;;;2.91;100.00
4836;BME280;66719;51.226;6.902;2023-04-26T00:56:49;101072.97;;;2.89;100.00
4836;BME280;66719;51.226;6.902;2023-04-26T00:59:19;101076.41;;;2.89;100.00
4836;BME280;66719;51.226;6.902;2023-04-26T01:01:46;101075.38;;;2.79;100.00
4836;BME280;66719;51.226;6.902;2023-04-26T01:04:14;101074.38;;;2.73;100.00
4836;BME280;66719;51.226;6.902;2023-04-26T01:06:41;101083.16;;;2.81;100.00
4836;BME280;66719;51.226;6.902;2023-04-26T01:09:08;101086.59;;;2.81;100.00
4836;BME280;66719;51.226;6.902;2023-04-26T01:11:36;101086.66;;;2.84;100.00
4836;BME280;66719;51.226;6.902;2023-04-26T01:14:04;101086.59;;;2.81;100.00
4836;BME280;66719;51.226;6.902;2023-04-26T01:16:31;101092.50;;;2.74;100.00
4836;BME280;66719;51.226;6.902;2023-04-26T01:19:06;101093.34;;;2.73;100.00
4836;BME280;66719;51.226;6.902;2023-04-26T01:21:33;101091.69;;;2.77;100.00
4836;BME280;66719;51.226;6.902;2023-04-26T01:24:00;101087.44;;;2.79;100.00
4836;BME280;66719;51.226;6.902;2023-04-26T01:26:26;101093.41;;;2.76;100.00
4836;BME280;66719;51.226;6.902;2023-04-26T01:28:53;101095.09;;;2.74;100.00
4836;BME280;66719;51.226;6.902;2023-04-26T01:31:19;101094.06;;;2.66;100.00
4836;BME280;66719;51.226;6.902;2023-04-26T01:33:46;101086.41;;;2.71;100.00
4836;BME280;66719;51.226;6.902;2023-04-26T01:36:13;101098.53;;;2.75;100.00
4836;BME280;66719;51.226;6.902;2023-04-26T01:38:39;101094.94;;;2.67;100.00
4836;BME280;66719;51.226;6.902;2023-04-26T01:41:06;101095.66;;;2.60;100.00
4836;BME280;66719;51.226;6.902;2023-04-26T01:43:32;101097.31;;;2.56;100.00
4836;BME280;66719;51.226;6.902;2023-04-26T01:45:59;101099.06;;;2.59;100.00
4836;BME280;66719;51.226;6.902;2023-04-26T01:48:25;101098.97;;;2.52;100.00
4836;BME280;66719;51.226;6.902;2023-04-26T01:50:52;101096.16;;;2.42;100.00
4836;BME280;66719;51.226;6.902;2023-04-26T01:53:18;101089.16;;;2.36;100.00
4836;BME280;66719;51.226;6.902;2023-04-26T01:55:45;101086.75;;;2.44;100.00
4836;BME280;66719;51.226;6.902;2023-04-26T01:58:11;101087.50;;;2.40;100.00
4836;BME280;66719;51.226;6.902;2023-04-26T02:00:38;101091.84;;;2.42;100.00
4836;BME280;66719;51.226;6.902;2023-04-26T02:03:04;101086.78;;;2.47;100.00
4836;BME280;66719;51.226;6.902;2023-04-26T02:05:31;101094.38;;;2.39;100.00
4836;BME280;66719;51.226;6.902;2023-04-26T02:07:57;101096.94;;;2.38;100.00
4836;BME280;66719;51.226;6.902;2023-04-26T02:10:24;101088.47;;;2.43;100.00
4836;BME280;66719;51.226;6.902;2023-04-26T02:12:50;101091.78;;;2.38;100.00
4836;BME280;66719;51.226;6.902;2023-04-26T02:15:17;101091.72;;;2.35;100.00
4836;BME280;66719;51.226;6.902;2023-04-26T02:17:43;101088.31;;;2.36;100.00
4836;BME280;66719;51.226;6.902;2023-04-26T02:20:10;101093.38;;;2.33;100.00
4836;BME280;66719;51.226;6.902;2023-04-26T02:22:37;101090.69;;;2.26;100.00
4836;BME280;66719;51.226;6.902;2023-04-26T02:25:03;101091.72;;;2.35;100.00
4836;BME280;66719;51.226;6.902;2023-04-26T02:27:30;101095.84;;;2.26;100.00
4836;BME280;66719;51.226;6.902;2023-04-26T02:29:58;101094.00;;;2.21;100.00
4836;BME280;66719;51.226;6.902;2023-04-26T02:32:24;101087.25;;;2.26;100.00
4836;BME280;66719;51.226;6.902;2023-04-26T02:34:51;101091.63;;;2.32;100.00
4836;BME280;66719;51.226;6.902;2023-04-26T02:37:17;101089.91;;;2.31;100.00
4836;BME280;66719;51.226;6.902;2023-04-26T02:39:48;101085.78;;;2.39;100.00
4836;BME280;66719;51.226;6.902;2023-04-26T02:42:16;101089.84;;;2.28;100.00
4836;BME280;66719;51.226;6.902;2023-04-26T02:44:43;101084.19;;;2.45;100.00
4836;BME280;66719;51.226;6.902;2023-04-26T02:47:09;101084.84;;;2.35;100.00
4836;BME280;66719;51.226;6.902;2023-04-26T02:49:36;101089.03;;;2.30;100.00
4836;BME280;66719;51.226;6.902;2023-04-26T02:52:02;101078.69;;;2.30;100.00
4836;BME280;66719;51.226;6.902;2023-04-26T02:54:29;101089.47;;;2.09;100.00
4836;BME280;66719;51.226;6.902;2023-04-26T02:56:56;101091.84;;;2.00;100.00
4836;BME280;66719;51.226;6.902;2023-04-26T02:59:23;101084.97;;;2.01;100.00
4836;BME280;66719;51.226;6.902;2023-04-26T03:01:50;101088.31;;;1.96;100.00
4836;BME280;66719;51.226;6.902;2023-04-26T03:04:16;101078.81;;;1.95;100.00
4836;BME280;66719;51.226;6.902;2023-04-26T03:06:43;101077.22;;;2.01;100.00
4836;BME280;66719;51.226;6.902;2023-04-26T03:09:10;101081.56;;;2.03;100.00
4836;BME280;66719;51.226;6.902;2023-04-26T03:11:36;101076.50;;;2.08;100.00
4836;BME280;66719;51.226;6.902;2023-04-26T03:14:03;101077.34;;;2.07;100.00
4836;BME280;66719;51.226;6.902;2023-04-26T03:16:29;101078.31;;;2.12;100.00
4836;BME280;66719;51.226;6.902;2023-04-26T03:18:57;101074.22;;;2.21;100.00
4836;BME280;66719;51.226;6.902;2023-04-26T03:21:23;101075.28;;;2.31;100.00
4836;BME280;66719;51.226;6.902;2023-04-26T03:23:50;101073.66;;;2.36;100.00
4836;BME280;66719;51.226;6.902;2023-04-26T03:26:16;101072.03;;;2.41;100.00
4836;BME280;66719;51.226;6.902;2023-04-26T03:28:43;101074.25;;;2.24;100.00
4836;BME280;66719;51.226;6.902;2023-04-26T03:31:09;101067.38;;;2.23;100.00
4836;BME280;66719;51.226;6.902;2023-04-26T03:33:36;101067.78;;;2.03;100.00
4836;BME280;66719;51.226;6.902;2023-04-26T03:36:03;101059.81;;;1.92;100.00
4836;BME280;66719;51.226;6.902;2023-04-26T03:38:30;101051.50;;;2.07;100.00
4836;BME280;66719;51.226;6.902;2023-04-26T03:40:56;101062.00;;;2.14;100.00
4836;BME280;66719;51.226;6.902;2023-04-26T03:43:23;101060.19;;;2.09;100.00
4836;BME280;66719;51.226;6.902;2023-04-26T03:45:50;101067.84;;;2.06;100.00
4836;BME280;66719;51.226;6.902;2023-04-26T03:48:16;101065.09;;;1.98;100.00
4836;BME280;66719;51.226;6.902;2023-04-26T03:50:44;101059.81;;;1.92;100.00
4836;BME280;66719;51.226;6.902;2023-04-26T03:53:11;101065.56;;;1.80;100.00
4836;BME280;66719;51.226;6.902;2023-04-26T03:55:38;101062.28;;;1.87;100.00
4836;BME280;66719;51.226;6.902;2023-04-26T03:58:04;101065.88;;;1.94;100.00
4836;BME280;66719;51.226;6.902;2023-04-26T04:00:37;101064.13;;;1.91;100.00
4836;BME280;66719;51.226;6.902;2023-04-26T04:03:05;101070.97;;;1.91;100.00
4836;BME280;66719;51.226;6.902;2023-04-26T04:05:32;101064.69;;;1.80;100.00
4836;BME280;66719;51.226;6.902;2023-04-26T04:07:59;101064.59;;;1.75;100.00
4836;BME280;66719;51.226;6.902;2023-04-26T04:10:26;101067.94;;;1.71;100.00
4836;BME280;66719;51.226;6.902;2023-04-26T04:12:52;101070.47;;;1.68;100.00
4836;BME280;66719;51.226;6.902;2023-04-26T04:15:19;101075.53;;;1.65;100.00
4836;BME280;66719;51.226;6.902;2023-04-26T04:17:46;101069.84;;;1.80;100.00
4836;BME280;66719;51.226;6.902;2023-04-26T04:20:12;101074.34;;;1.88;100.00
4836;BME280;66719;51.226;6.902;2023-04-26T04:22:39;101077.59;;;1.80;100.00
4836;BME280;66719;51.226;6.902;2023-04-26T04:25:07;101072.56;;;1.84;100.00
4836;BME280;66719;51.226;6.902;2023-04-26T04:27:35;101078.44;;;1.79;100.00
4836;BME280;66719;51.226;6.902;2023-04-26T04:30:03;101073.94;;;1.70;100.00
4836;BME280;66719;51.226;6.902;2023-04-26T04:32:32;101079.25;;;1.76;100.00
4836;BME280;66719;51.226;6.902;2023-04-26T04:34:59;101088.91;;;1.85;100.00
4836;BME280;66719;51.226;6.902;2023-04-26T04:37:26;101087.28;;;1.90;100.00
4836;BME280;66719;51.226;6.902;2023-04-26T04:39:54;101088.44;;;2.03;100.00
4836;BME280;66719;51.226;6.902;2023-04-26T04:42:21;101089.41;;;2.08;100.00
4836;BME280;66719;51.226;6.902;2023-04-26T04:44:47;101087.91;;;2.17;100.00
4836;BME280;66719;51.226;6.902;2023-04-26T04:47:15;101082.81;;;2.20;100.00
4836;BME280;66719;51.226;6.902;2023-04-26T04:49:43;101080.19;;;2.19;100.00
4836;BME280;66719;51.226;6.902;2023-04-26T04:52:09;101085.41;;;2.22;100.00
4836;BME280;66719;51.226;6.902;2023-04-26T04:54:36;101094.09;;;2.25;100.00
4836;BME280;66719;51.226;6.902;2023-04-26T04:57:03;101100.22;;;2.29;100.00
4836;BME280;66719;51.226;6.902;2023-04-26T04:59:30;101092.50;;;2.32;100.00
4836;BME280;66719;51.226;6.902;2023-04-26T05:01:56;101101.13;;;2.33;100.00
4836;BME280;66719;51.226;6.902;2023-04-26T05:04:23;101107.28;;;2.38;100.00
4836;BME280;66719;51.226;6.902;2023-04-26T05:06:50;101102.84;;;2.32;100.00
4836;BME280;66719;51.226;6.902;2023-04-26T05:09:17;101107.47;;;2.08;100.00
4836;BME280;66719;51.226;6.902;2023-04-26T05:11:43;101113.06;;;1.88;100.00
4836;BME280;66719;51.226;6.902;2023-04-26T05:14:10;101118.38;;;1.94;100.00
4836;BME280;66719;51.226;6.902;2023-04-26T05:16:36;101118.19;;;1.87;100.00
4836;BME280;66719;51.226;6.902;2023-04-26T05:19:03;101120.75;;;1.85;100.00
4836;BME280;66719;51.226;6.902;2023-04-26T05:21:33;101120.09;;;1.94;100.00
4836;BME280;66719;51.226;6.902;2023-04-26T05:24:00;101124.38;;;1.93;100.00
4836;BME280;66719;51.226;6.902;2023-04-26T05:26:27;101120.06;;;1.92;100.00
4836;BME280;66719;51.226;6.902;2023-04-26T05:28:53;101126.28;;;2.01;100.00
4836;BME280;66719;51.226;6.902;2023-04-26T05:31:20;101129.94;;;2.10;100.00
4836;BME280;66719;51.226;6.902;2023-04-26T05:33:46;101125.59;;;2.09;100.00
4836;BME280;66719;51.226;6.902;2023-04-26T05:36:13;101126.69;;;2.19;100.00
4836;BME280;66719;51.226;6.902;2023-04-26T05:38:39;101135.47;;;2.27;100.00
4836;BME280;66719;51.226;6.902;2023-04-26T05:41:06;101132.31;;;2.42;100.00
4836;BME280;66719;51.226;6.902;2023-04-26T05:43:33;101137.63;;;2.48;100.00
4836;BME280;66719;51.226;6.902;2023-04-26T05:45:59;101129.25;;;2.60;100.00
4836;BME280;66719;51.226;6.902;2023-04-26T05:48:27;101129.50;;;2.72;100.00
4836;BME280;66719;51.226;6.902;2023-04-26T05:50:55;101135.78;;;2.84;100.00
4836;BME280;66719;51.226;6.902;2023-04-26T05:53:21;101131.59;;;2.90;100.00
4836;BME280;66719;51.226;6.902;2023-04-26T05:55:48;101142.06;;;2.97;100.00
4836;BME280;66719;51.226;6.902;2023-04-26T05:58:14;101141.34;;;3.04;100.00
4836;BME280;66719;51.226;6.902;2023-04-26T06:00:41;101142.34;;;3.12;100.00
4836;BME280;66719;51.226;6.902;2023-04-26T06:03:07;101149.38;;;3.20;100.00
4836;BME280;66719;51.226;6.902;2023-04-26T06:05:35;101141.72;;;3.24;100.00
4836;BME280;66719;51.226;6.902;2023-04-26T06:08:04;101147.00;;;3.30;100.00
4836;BME280;66719;51.226;6.902;2023-04-26T06:10:30;101144.44;;;3.32;100.00
4836;BME280;66719;51.226;6.902;2023-04-26T06:12:57;101152.25;;;3.36;100.00
4836;BME280;66719;51.226;6.902;2023-04-26T06:15:23;101153.22;;;3.40;100.00
4836;BME280;66719;51.226;6.902;2023-04-26T06:17:50;101149.81;;;3.44;100.00
4836;BME280;66719;51.226;6.902;2023-04-26T06:20:17;101150.78;;;3.51;100.00
4836;BME280;66719;51.226;6.902;2023-04-26T06:22:43;101149.19;;;3.57;100.00
4836;BME280;66719;51.226;6.902;2023-04-26T06:25:10;101150.22;;;3.68;100.00
4836;BME280;66719;51.226;6.902;2023-04-26T06:27:36;101161.63;;;3.80;100.00
4836;BME280;66719;51.226;6.902;2023-04-26T06:30:05;101160.91;;;3.90;100.00
4836;BME280;66719;51.226;6.902;2023-04-26T06:32:33;101163.59;;;3.96;100.00
4836;BME280;66719;51.226;6.902;2023-04-26T06:34:59;101162.81;;;4.00;100.00
4836;BME280;66719;51.226;6.902;2023-04-26T06:37:26;101163.72;;;4.04;100.00
4836;BME280;66719;51.226;6.902;2023-04-26T06:39:53;101162.13;;;4.12;100.00
4836;BME280;66719;51.226;6.902;2023-04-26T06:42:19;101165.63;;;4.17;100.00
4836;BME280;66719;51.226;6.902;2023-04-26T06:44:46;101167.47;;;4.22;100.00
4836;BME280;66719;51.226;6.902;2023-04-26T06:47:12;101166.72;;;4.30;100.00
4836;BME280;66719;51.226;6.902;2023-04-26T06:49:39;101167.66;;;4.36;100.00
4836;BME280;66719;51.226;6.902;2023-04-26T06:52:06;101163.41;;;4.43;100.00
4836;BME280;66719;51.226;6.902;2023-04-26T06:54:34;101166.09;;;4.47;100.00
4836;BME280;66719;51.226;6.902;2023-04-26T06:57:11;101161.81;;;4.51;100.00
4836;BME280;66719;51.226;6.902;2023-04-26T06:59:38;101154.94;;;4.54;100.00
4836;BME280;66719;51.226;6.902;2023-04-26T07:02:04;101153.31;;;4.61;100.00
4836;BME280;66719;51.226;6.902;2023-04-26T07:04:33;101156.03;;;4.70;100.00
4836;BME280;66719;51.226;6.902;2023-04-26T07:07:00;101155.22;;;4.77;100.00
4836;BME280;66719;51.226;6.902;2023-04-26T07:09:27;101159.59;;;4.81;100.00
4836;BME280;66719;51.226;6.902;2023-04-26T07:11:53;101170.03;;;4.86;100.00
4836;BME280;66719;51.226;6.902;2023-04-26T07:14:20;101165.78;;;4.94;100.00
4836;BME280;66719;51.226;6.902;2023-04-26T07:16:46;101165.88;;;4.99;100.00
4836;BME280;66719;51.226;6.902;2023-04-26T07:19:13;101163.28;;;5.02;100.00
4836;BME280;66719;51.226;6.902;2023-04-26T07:21:39;101165.94;;;5.06;100.00
4836;BME280;66719;51.226;6.902;2023-04-26T07:24:06;101159.94;;;5.12;100.00
4836;BME280;66719;51.226;6.902;2023-04-26T07:26:34;101176.44;;;5.19;100.00
4836;BME280;66719;51.226;6.902;2023-04-26T07:29:01;101170.38;;;5.18;100.00
4836;BME280;66719;51.226;6.902;2023-04-26T07:31:30;101160.00;;;5.17;100.00
4836;BME280;66719;51.226;6.902;2023-04-26T07:33:57;101160.06;;;5.21;100.00
4836;BME280;66719;51.226;6.902;2023-04-26T07:36:24;101159.28;;;5.31;100.00
4836;BME280;66719;51.226;6.902;2023-04-26T07:38:50;101160.28;;;5.44;100.00
4836;BME280;66719;51.226;6.902;2023-04-26T07:41:17;101156.88;;;5.53;100.00
4836;BME280;66719;51.226;6.902;2023-04-26T07:43:43;101151.78;;;5.62;100.00
4836;BME280;66719;51.226;6.902;2023-04-26T07:46:10;101149.22;;;5.66;100.00
4836;BME280;66719;51.226;6.902;2023-04-26T07:48:36;101152.72;;;5.70;100.00
4836;BME280;66719;51.226;6.902;2023-04-26T07:51:07;101154.50;;;5.77;100.00
4836;BME280;66719;51.226;6.902;2023-04-26T07:53:34;101162.31;;;5.79;100.00
4836;BME280;66719;51.226;6.902;2023-04-26T07:56:03;101152.78;;;5.79;100.00
4836;BME280;66719;51.226;6.902;2023-04-26T07:58:30;101156.31;;;5.89;100.00
4836;BME280;66719;51.226;6.902;2023-04-26T08:00:58;101157.31;;;6.00;100.00
4836;BME280;66719;51.226;6.902;2023-04-26T08:03:25;101161.66;;;6.04;100.00
4836;BME280;66719;51.226;6.902;2023-04-26T08:05:55;101158.25;;;6.13;100.00
4836;BME280;66719;51.226;6.902;2023-04-26T08:08:21;101155.72;;;6.20;100.00
4836;BME280;66719;51.226;6.902;2023-04-26T08:10:48;101149.69;;;6.28;100.00
4836;BME280;66719;51.226;6.902;2023-04-26T08:13:14;101152.31;;;6.31;100.00
4836;BME280;66719;51.226;6.902;2023-04-26T08:15:41;101147.06;;;6.24;100.00
4836;BME280;66719;51.226;6.902;2023-04-26T08:18:07;101145.31;;;6.25;100.00
4836;BME280;66719;51.226;6.902;2023-04-26T08:20:34;101142.78;;;6.33;100.00
4836;BME280;66719;51.226;6.902;2023-04-26T08:23:00;101155.00;;;6.43;100.00
4836;BME280;66719;51.226;6.902;2023-04-26T08:25:27;101151.56;;;6.58;100.00
4836;BME280;66719;51.226;6.902;2023-04-26T08:27:54;101152.47;;;6.61;100.00
4836;BME280;66719;51.226;6.902;2023-04-26T08:30:20;101151.56;;;6.55;100.00
4836;BME280;66719;51.226;6.902;2023-04-26T08:32:47;101155.00;;;6.44;100.00
4836;BME280;66719;51.226;6.902;2023-04-26T08:35:14;101152.31;;;6.32;100.00
4836;BME280;66719;51.226;6.902;2023-04-26T08:37:41;101153.16;;;6.27;100.00
4836;BME280;66719;51.226;6.902;2023-04-26T08:40:07;101154.84;;;6.23;100.00
4836;BME280;66719;51.226;6.902;2023-04-26T08:42:41;101159.19;;;6.21;100.00
4836;BME280;66719;51.226;6.902;2023-04-26T08:45:09;101160.06;;;6.21;100.00
4836;BME280;66719;51.226;6.902;2023-04-26T08:47:43;101163.56;;;6.28;100.00
4836;BME280;66719;51.226;6.902;2023-04-26T08:50:14;101163.56;;;6.31;100.00
4836;BME280;66719;51.226;6.902;2023-04-26T08:52:42;101156.69;;;6.35;100.00
4836;BME280;66719;51.226;6.902;2023-04-26T08:55:10;101156.69;;;6.42;100.00
4836;BME280;66719;51.226;6.902;2023-04-26T08:57:38;101152.44;;;6.54;100.00
4836;BME280;66719;51.226;6.902;2023-04-26T09:00:06;101162.03;;;6.65;100.00
4836;BME280;66719;51.226;6.902;2023-04-26T09:02:39;101158.59;;;6.72;100.00
4836;BME280;66719;51.226;6.902;2023-04-26T09:05:07;101169.91;;;6.80;100.00
4836;BME280;66719;51.226;6.902;2023-04-26T09:07:40;101164.69;;;6.84;100.00
4836;BME280;66719;51.226;6.902;2023-04-26T09:10:08;101170.81;;;6.90;100.00
4836;BME280;66719;51.226;6.902;2023-04-26T09:12:35;101159.56;;;7.03;100.00
4836;BME280;66719;51.226;6.902;2023-04-26T09:15:02;101163.03;;;7.10;100.00
4836;BME280;66719;51.226;6.902;2023-04-26T09:17:31;101165.66;;;7.12;100.00
4836;BME280;66719;51.226;6.902;2023-04-26T09:19:59;101155.22;;;7.12;100.00
4836;BME280;66719;51.226;6.902;2023-04-26T09:22:36;101156.97;;;7.11;100.00
4836;BME280;66719;51.226;6.902;2023-04-26T09:25:03;101154.38;;;7.11;100.00
4836;BME280;66719;51.226;6.902;2023-04-26T09:27:32;101156.09;;;7.12;100.00
4836;BME280;66719;51.226;6.902;2023-04-26T09:30:13;101163.94;;;7.15;100.00
4836;BME280;66719;51.226;6.902;2023-04-26T09:32:56;101162.19;;;7.19;98.42
4836;BME280;66719;51.226;6.902;2023-04-26T09:35:31;101152.66;;;7.19;94.40
4836;BME280;66719;51.226;6.902;2023-04-26T09:38:00;101138.78;;;7.13;89.94
4836;BME280;66719;51.226;6.902;2023-04-26T09:40:38;101147.44;;;7.18;89.55
4836;BME280;66719;51.226;6.902;2023-04-26T09:43:07;101141.41;;;7.25;88.83
4836;BME280;66719;51.226;6.902;2023-04-26T09:45:51;101137.06;;;7.33;90.31
4836;BME280;66719;51.226;6.902;2023-04-26T09:53:35;101137.97;;;7.50;89.71
4836;BME280;66719;51.226;6.902;2023-04-26T09:56:06;101137.97;;;7.47;88.12
4836;BME280;66719;51.226;6.902;2023-04-26T10:01:24;101137.06;;;7.37;83.54
4836;BME280;66719;51.226;6.902;2023-04-26T10:03:51;101124.03;;;7.34;86.16
4836;BME280;66719;51.226;6.902;2023-04-26T10:06:18;101128.38;;;7.34;84.22
4836;BME280;66719;51.226;6.902;2023-04-26T10:08:45;101131.00;;;7.39;84.88
4836;BME280;66719;51.226;6.902;2023-04-26T10:11:12;101128.41;;;7.40;83.31
4836;BME280;66719;51.226;6.902;2023-04-26T10:13:39;101127.53;;;7.50;86.29
4836;BME280;66719;51.226;6.902;2023-04-26T10:16:10;101118.84;;;7.67;86.61
4836;BME280;66719;51.226;6.902;2023-04-26T10:18:37;101130.13;;;7.70;82.08
4836;BME280;66719;51.226;6.902;2023-04-26T10:21:27;101128.41;;;7.71;81.20
4836;BME280;66719;51.226;6.902;2023-04-26T10:23:58;101123.19;;;7.69;80.50
4836;BME280;66719;51.226;6.902;2023-04-26T10:26:47;101124.06;;;7.74;80.54
4836;BME280;66719;51.226;6.902;2023-04-26T10:30:04;101125.78;;;7.86;82.92
4836;BME280;66719;51.226;6.902;2023-04-26T10:32:14;101117.97;;;8.00;81.41
4836;BME280;66719;51.226;6.902;2023-04-26T10:34:44;101118.81;;;8.09;81.85
4836;BME280;66719;51.226;6.902;2023-04-26T10:37:17;101111.81;;;8.20;80.90
4836;BME280;66719;51.226;6.902;2023-04-26T10:39:44;101117.00;;;8.23;77.54
4836;BME280;66719;51.226;6.902;2023-04-26T10:48:20;101112.66;;;8.24;71.56
4836;BME280;66719;51.226;6.902;2023-04-26T10:56:10;101109.19;;;8.34;73.58
4836;BME280;66719;51.226;6.902;2023-04-26T10:58:39;101104.81;;;8.33;72.37
4836;BME280;66719;51.226;6.902;2023-04-26T11:01:17;101108.34;;;8.26;72.45
4836;BME280;66719;51.226;6.902;2023-04-26T11:06:24;101103.06;;;8.34;73.92
4836;BME280;66719;51.226;6.902;2023-04-26T11:08:52;101102.22;;;8.41;74.67
4836;BME280;66719;51.226;6.902;2023-04-26T11:11:24;101103.06;;;8.46;75.88
4836;BME280;66719;51.226;6.902;2023-04-26T11:13:51;101110.91;;;8.34;73.67
4836;BME280;66719;51.226;6.902;2023-04-26T11:16:18;101101.38;;;8.23;74.24
4836;BME280;66719;51.226;6.902;2023-04-26T11:18:46;101101.38;;;8.28;76.25
4836;BME280;66719;51.226;6.902;2023-04-26T11:21:13;101099.63;;;8.36;77.48
4836;BME280;66719;51.226;6.902;2023-04-26T11:23:52;101098.75;;;8.37;78.57
4836;BME280;66719;51.226;6.902;2023-04-26T11:26:19;101103.09;;;8.44;77.81
4836;BME280;66719;51.226;6.902;2023-04-26T11:28:45;101104.81;;;8.48;78.71
4836;BME280;66719;51.226;6.902;2023-04-26T11:31:14;101106.53;;;8.48;78.28
4836;BME280;66719;51.226;6.902;2023-04-26T11:33:40;101099.63;;;8.44;75.50
4836;BME280;66719;51.226;6.902;2023-04-26T11:36:07;101096.09;;;8.48;75.81
4836;BME280;66719;51.226;6.902;2023-04-26T11:38:34;101096.06;;;8.56;75.47
4836;BME280;66719;51.226;6.902;2023-04-26T11:41:03;101096.06;;;8.57;74.13
4836;BME280;66719;51.226;6.902;2023-04-26T11:43:39;101082.94;;;8.72;76.11
4836;BME280;66719;51.226;6.902;2023-04-26T11:46:06;101082.84;;;8.91;75.35
4836;BME280;66719;51.226;6.902;2023-04-26T11:48:35;101083.66;;;8.99;73.71
4836;BME280;66719;51.226;6.902;2023-04-26T11:51:04;101083.59;;;9.13;72.18
4836;BME280;66719;51.226;6.902;2023-04-26T11:53:35;101078.38;;;9.10;70.38
4836;BME280;66719;51.226;6.902;2023-04-26T11:56:04;101068.84;;;9.05;71.14
4836;BME280;66719;51.226;6.902;2023-04-26T11:58:38;101074.00;;;9.12;71.32
4836;BME280;66719;51.226;6.902;2023-04-26T12:01:05;101068.69;;;9.21;70.76
4836;BME280;66719;51.226;6.902;2023-04-26T12:03:33;101071.31;;;9.21;71.05
4836;BME280;66719;51.226;6.902;2023-04-26T12:06:03;101083.59;;;9.08;67.64
4836;BME280;66719;51.226;6.902;2023-04-26T12:08:31;101080.91;;;9.23;70.31
4836;BME280;66719;51.226;6.902;2023-04-26T12:11:02;101079.94;;;9.33;69.40
4836;BME280;66719;51.226;6.902;2023-04-26T12:13:28;101081.66;;;9.36;68.97
4836;BME280;66719;51.226;6.902;2023-04-26T12:15:55;101087.91;;;9.17;68.06
4836;BME280;66719;51.226;6.902;2023-04-26T12:18:29;101087.09;;;9.07;67.85
4836;BME280;66719;51.226;6.902;2023-04-26T12:20:59;101082.78;;;9.00;68.31
4836;BME280;66719;51.226;6.902;2023-04-26T12:23:36;101092.38;;;8.98;67.29
4836;BME280;66719;51.226;6.902;2023-04-26T12:26:03;101084.44;;;9.12;70.16
4836;BME280;66719;51.226;6.902;2023-04-26T12:28:30;101088.75;;;9.19;69.14
4836;BME280;66719;51.226;6.902;2023-04-26T12:30:56;101087.81;;;9.27;69.25
4836;BME280;66719;51.226;6.902;2023-04-26T12:33:23;101086.81;;;9.44;70.35
4836;BME280;66719;51.226;6.902;2023-04-26T12:35:50;101089.28;;;9.62;70.24
4836;BME280;66719;51.226;6.902;2023-04-26T12:38:17;101084.81;;;9.76;69.26
4836;BME280;66719;51.226;6.902;2023-04-26T12:40:44;101082.84;;;10.00;67.91
4836;BME280;66719;51.226;6.902;2023-04-26T12:43:11;101080.09;;;10.10;66.77
4836;BME280;66719;51.226;6.902;2023-04-26T12:45:38;101079.97;;;10.26;68.35
4836;BME280;66719;51.226;6.902;2023-04-26T12:48:04;101070.91;;;10.54;68.63
4836;BME280;66719;51.226;6.902;2023-04-26T12:50:31;101073.44;;;10.59;69.97
4836;BME280;66719;51.226;6.902;2023-04-26T12:52:58;101076.16;;;10.53;69.74
4836;BME280;66719;51.226;6.902;2023-04-26T12:55:25;101081.88;;;10.07;63.18
4836;BME280;66719;51.226;6.902;2023-04-26T12:57:52;101081.28;;;9.82;61.34
4836;BME280;66719;51.226;6.902;2023-04-26T13:00:18;101082.94;;;9.90;63.84
4836;BME280;66719;51.226;6.902;2023-04-26T13:02:46;101064.47;;;10.04;65.19
4836;BME280;66719;51.226;6.902;2023-04-26T13:05:13;101076.41;;;10.31;67.71
4836;BME280;66719;51.226;6.902;2023-04-26T13:07:42;101072.59;;;10.57;62.85
4836;BME280;66719;51.226;6.902;2023-04-26T13:10:09;101066.91;;;10.21;60.73
4836;BME280;66719;51.226;6.902;2023-04-26T13:12:38;101074.53;;;10.42;60.68
4836;BME280;66719;51.226;6.902;2023-04-26T13:15:06;101073.72;;;11.02;57.39
4836;BME280;66719;51.226;6.902;2023-04-26T13:17:36;101072.53;;;11.75;62.48
4836;BME280;66719;51.226;6.902;2023-04-26T13:20:06;101077.78;;;12.66;62.67
4836;BME280;66719;51.226;6.902;2023-04-26T13:22:33;101068.47;;;13.31;61.25
4836;BME280;66719;51.226;6.902;2023-04-26T13:25:00;101075.13;;;13.44;55.35
4836;BME280;66719;51.226;6.902;2023-04-26T13:27:28;101078.91;;;12.95;54.18